James Turecamo — WDC7565 — position and weather

sailwx.info

Track history (hours):
 
Tides and Currents Weather Stations Pressure Air Temp Water Temp Dewpoint Dewpoint Depression Visibility Wind Speed Wind Dir Waves Ship Positions

James Turecamo

Owner: Moran Towing Corporation, New Canaan, CT. More information available from US FCC via Universal Licensing System and Coast Guard Vessel Documentation Center.

Last reported at 2015-Jan-31 22:33 UTC. Time now 2015-Jan-31 22:39 UTC.
Position N 40°38' W 074°08'.

Length 27 m; draft 4.5 m.

Type: Tug. MMSI: 367073380.

Date/timePositionNaut miles runAvg speedWind from/ knotsBaromVisibWave heightAir tempDewpointWater temp
2015-Jan-31 22:33N 40°38' W 074°08'0 0.0
2015-Jan-31 21:33N 40°38' W 074°08'0 0.0
2015-Jan-31 20:33N 40°38' W 074°08'0 0.0
2015-Jan-31 19:33N 40°38' W 074°08'1 0.9
2015-Jan-31 18:24N 40°39' W 074°07'0 0.0
2015-Jan-31 17:25N 40°39' W 074°07'1 0.9
2015-Jan-31 16:29N 40°39' W 074°06'2 1.2
2015-Jan-31 15:03N 40°38' W 074°08'0 0.0
2015-Jan-31 14:33N 40°38' W 074°08'0 0.0
2015-Jan-31 13:30N 40°38' W 074°08'0 0.0
2015-Jan-31 12:33N 40°38' W 074°08'8 7.5
2015-Jan-31 11:25N 40°32' W 074°15'1 0.6
2015-Jan-31 10:18N 40°31' W 074°15'0 0.0
2015-Jan-31 06:19N 40°31' W 074°15'9 7.5
2015-Jan-31 05:10N 40°39' W 074°09'3 0.9
2015-Jan-31 02:06N 40°39' W 074°06'2 3.1
2015-Jan-31 01:20N 40°39' W 074°03'4 1.9
2015-Jan-30 23:17N 40°38' W 074°08'2 2.2
2015-Jan-30 22:31N 40°40' W 074°08'1 0.9
2015-Jan-30 21:32N 40°39' W 074°09'1 0.5
2015-Jan-30 19:17N 40°38' W 074°08'0 0.0
2015-Jan-30 15:33N 40°38' W 074°08'0 0.0
2015-Jan-30 13:09N 40°38' W 074°08'0 0.0
2015-Jan-30 12:20N 40°38' W 074°08'1 1.8
2015-Jan-30 11:32N 40°39' W 074°06'1 1.3
2015-Jan-30 10:26N 40°38' W 074°08'0 0.0
2015-Jan-30 09:24N 40°38' W 074°08'0 0.0
2015-Jan-30 08:33N 40°38' W 074°08'0 0.0
2015-Jan-30 06:14N 40°38' W 074°08'0 0.0
2015-Jan-30 04:27N 40°38' W 074°08'0 0.0
2015-Jan-30 03:33N 40°38' W 074°08'0 0.0
2015-Jan-30 02:34N 40°38' W 074°08'0 0.0
2015-Jan-30 01:32N 40°38' W 074°08'0 0.0
2015-Jan-30 00:33N 40°38' W 074°08'0 0.0
2015-Jan-29 23:32N 40°38' W 074°08'0 0.0
2015-Jan-29 22:33N 40°38' W 074°08'0 0.0
2015-Jan-29 21:33N 40°38' W 074°08'0 0.0
2015-Jan-29 20:32N 40°38' W 074°08'2 1.9
2015-Jan-29 19:33N 40°39' W 074°06'0 0.1
2015-Jan-29 18:33N 40°39' W 074°05'2 1.8
2015-Jan-29 17:33N 40°38' W 074°08'3 3.3
2015-Jan-29 16:32N 40°42' W 074°07'7 1.7
2015-Jan-29 12:09N 40°48' W 074°03'2 3.2
2015-Jan-29 11:33N 40°47' W 074°05'2 2.1
2015-Jan-29 10:33N 40°45' W 074°05'2 2.1
2015-Jan-29 09:32N 40°43' W 074°06'1 0.2
2015-Jan-29 02:05N 40°44' W 074°07'0 0.0
2015-Jan-29 01:24N 40°44' W 074°07'2 2.4
2015-Jan-29 00:32N 40°42' W 074°07'2 1.8
2015-Jan-28 23:30N 40°40' W 074°08'2 1.9
2015-Jan-28 22:24N 40°38' W 074°08'0 0.0
2015-Jan-28 21:26N 40°38' W 074°08'0 0.0
2015-Jan-28 19:17N 40°38' W 074°08'0 0.0
2015-Jan-28 18:33N 40°38' W 074°08'0 0.0
2015-Jan-28 17:33N 40°38' W 074°08'0 0.0
2015-Jan-28 16:30N 40°38' W 074°08'0 0.0
2015-Jan-28 15:33N 40°38' W 074°08'0 0.0
2015-Jan-28 14:33N 40°38' W 074°08'0 0.0
2015-Jan-28 13:34N 40°38' W 074°08'0 0.0
2015-Jan-28 12:26N 40°38' W 074°08'0 0.0
2015-Jan-28 11:33N 40°38' W 074°08'0 0.0
2015-Jan-28 10:30N 40°38' W 074°08'0 0.0
2015-Jan-28 09:09N 40°38' W 074°08'0 0.0
2015-Jan-28 08:33N 40°38' W 074°08'0 0.0
2015-Jan-28 07:33N 40°38' W 074°08'0 0.0
2015-Jan-28 06:33N 40°38' W 074°08'0 0.0
2015-Jan-28 05:32N 40°38' W 074°08'0 0.0
2015-Jan-28 04:24N 40°38' W 074°08'0 0.0
2015-Jan-28 03:16N 40°38' W 074°08'0 0.0
2015-Jan-28 02:27N 40°38' W 074°08'0 0.0
2015-Jan-28 01:33N 40°38' W 074°08'0 0.0
2015-Jan-28 00:31N 40°38' W 074°08'0 0.0
2015-Jan-27 23:27N 40°38' W 074°08'0 0.0
2015-Jan-27 22:32N 40°38' W 074°08'0 0.0
2015-Jan-27 21:33N 40°38' W 074°08'0 0.0
2015-Jan-27 20:33N 40°38' W 074°08'0 0.0
2015-Jan-27 19:33N 40°38' W 074°08'0 0.0
2015-Jan-27 18:34N 40°38' W 074°08'0 0.0
2015-Jan-27 17:33N 40°38' W 074°08'0 0.0
2015-Jan-27 16:34N 40°38' W 074°08'0 0.0
2015-Jan-27 08:33N 40°38' W 074°08'0 0.0
2015-Jan-27 07:33N 40°38' W 074°08'0 0.0
2015-Jan-27 06:26N 40°38' W 074°08'0 0.0
2015-Jan-26 22:29N 40°38' W 074°08'0 0.0
2015-Jan-26 21:29N 40°38' W 074°08'0 0.0
2015-Jan-26 20:09N 40°38' W 074°08'0 0.0
2015-Jan-26 19:27N 40°38' W 074°08'0 0.0
2015-Jan-26 18:10N 40°38' W 074°08'0 0.0
2015-Jan-26 17:30N 40°38' W 074°08'0 0.0
2015-Jan-26 16:33N 40°38' W 074°08'0 0.0
2015-Jan-26 15:33N 40°38' W 074°08'0 0.0
2015-Jan-26 14:33N 40°38' W 074°08'0 0.0
2015-Jan-26 13:33N 40°38' W 074°08'0 0.0
2015-Jan-26 12:33N 40°38' W 074°08'0 0.0
2015-Jan-26 11:33N 40°38' W 074°08'0 0.0
2015-Jan-26 10:32N 40°38' W 074°08'0 0.0
2015-Jan-26 09:33N 40°38' W 074°08'8 2.8
2015-Jan-26 06:33N 40°32' W 074°15'8 2.6
2015-Jan-26 03:33N 40°39' W 074°10'2 1.8
2015-Jan-26 02:32N 40°38' W 074°08'0 0.0
2015-Jan-26 01:20N 40°38' W 074°08'0 0.0
2015-Jan-26 00:10N 40°38' W 074°08'0 0.0
2015-Jan-25 23:33N 40°38' W 074°08'0 0.0
2015-Jan-25 22:32N 40°38' W 074°08'0 0.0
2015-Jan-25 21:32N 40°38' W 074°08'0 0.0
2015-Jan-25 20:14N 40°38' W 074°08'0 0.0
2015-Jan-25 19:30N 40°38' W 074°08'0 0.0
2015-Jan-25 18:27N 40°38' W 074°08'3 3.1
2015-Jan-25 17:33N 40°39' W 074°04'1 1.1
2015-Jan-25 16:33N 40°39' W 074°03'4 1.3
2015-Jan-25 13:34N 40°38' W 074°08'0 0.0
2015-Jan-25 12:33N 40°38' W 074°08'0 0.0
2015-Jan-25 11:30N 40°38' W 074°08'2 1.7
2015-Jan-25 10:34N 40°39' W 074°06'0 0.0
2015-Jan-25 09:34N 40°39' W 074°06'1 0.6
2015-Jan-25 08:33N 40°39' W 074°05'0 0.2
2015-Jan-25 07:33N 40°39' W 074°05'2 2.1
2015-Jan-25 06:33N 40°38' W 074°03'7 5.4
2015-Jan-25 05:17N 40°38' W 074°12'2 1.8
2015-Jan-25 04:15N 40°36' W 074°12'1 1.5
2015-Jan-25 03:33N 40°35' W 074°13'0 0.2
2015-Jan-25 02:34N 40°35' W 074°13'3 1.3
2015-Jan-25 00:23N 40°38' W 074°12'3 3.8
2015-Jan-24 23:33N 40°38' W 074°08'0 0.0
2015-Jan-24 22:33N 40°38' W 074°08'0 0.0
2015-Jan-24 21:33N 40°38' W 074°08'0 0.0
2015-Jan-24 20:32N 40°38' W 074°08'0 0.0
2015-Jan-24 19:33N 40°38' W 074°08'0 0.0
2015-Jan-24 18:33N 40°38' W 074°08'0 0.0
2015-Jan-24 17:33N 40°38' W 074°08'0 0.0
2015-Jan-24 16:33N 40°38' W 074°08'0 0.0
2015-Jan-24 15:04N 40°38' W 074°08'0 0.1
2015-Jan-24 10:32N 40°39' W 074°08'0 0.3
2015-Jan-24 09:18N 40°38' W 074°08'0 0.0
2015-Jan-24 08:33N 40°38' W 074°08'0 0.0
2015-Jan-24 07:33N 40°38' W 074°08'0 0.0
2015-Jan-24 06:29N 40°38' W 074°08'0 0.0
2015-Jan-24 04:25N 40°38' W 074°08'0 0.0
2015-Jan-24 03:33N 40°38' W 074°08'3 2.6
2015-Jan-24 02:33N 40°41' W 074°09'1 0.6
2015-Jan-24 01:33N 40°40' W 074°08'2 2.0
2015-Jan-24 00:34N 40°38' W 074°08'0 0.0
2015-Jan-23 23:34N 40°38' W 074°08'4 3.8
2015-Jan-23 22:33N 40°39' W 074°03'4 3.8
2015-Jan-23 21:34N 40°43' W 074°01'4 4.3
2015-Jan-23 20:34N 40°47' W 073°60'0 0.0
2015-Jan-23 19:33N 40°47' W 073°60'10 9.5
2015-Jan-23 18:33N 40°39' W 074°06'1 0.3
2015-Jan-23 15:06N 40°38' W 074°08'0 0.0
2015-Jan-23 13:30N 40°38' W 074°08'0 0.0
2015-Jan-23 12:32N 40°38' W 074°08'3 2.9
2015-Jan-23 11:33N 40°41' W 074°09'1 1.2
2015-Jan-23 10:33N 40°40' W 074°08'2 1.6
2015-Jan-23 09:28N 40°38' W 074°08'0 0.0
2015-Jan-23 08:13N 40°38' W 074°08'1 1.0
2015-Jan-23 07:33N 40°38' W 074°09'3 3.2
2015-Jan-23 06:33N 40°42' W 074°09'2 2.2
2015-Jan-23 05:32N 40°40' W 074°09'0 0.3
2015-Jan-23 04:33N 40°40' W 074°09'1 1.4
2015-Jan-23 03:31N 40°38' W 074°08'0 0.0
2015-Jan-23 02:33N 40°38' W 074°08'0 0.0
2015-Jan-23 01:32N 40°38' W 074°08'0 0.0
2015-Jan-23 00:32N 40°38' W 074°08'0 0.0
2015-Jan-22 23:33N 40°38' W 074°08'0 0.0
2015-Jan-22 21:27N 40°38' W 074°08'0 0.0
2015-Jan-22 20:06N 40°38' W 074°08'0 0.0
2015-Jan-22 19:16N 40°38' W 074°08'0 0.0
2015-Jan-22 18:29N 40°38' W 074°08'2 2.6
2015-Jan-22 17:34N 40°39' W 074°05'2 1.8
2015-Jan-22 16:32N 40°39' W 074°07'1 0.6
2015-Jan-22 15:33N 40°38' W 074°08'3 2.6
2015-Jan-22 14:33N 40°41' W 074°08'1 1.2
2015-Jan-22 13:32N 40°40' W 074°08'3 3.2
2015-Jan-22 12:33N 40°39' W 074°04'4 4.0
2015-Jan-22 11:31N 40°41' W 074°09'2 1.8
2015-Jan-22 10:29N 40°39' W 074°09'1 1.3
2015-Jan-22 09:33N 40°38' W 074°08'0 0.0
2015-Jan-22 08:33N 40°38' W 074°08'0 0.0
2015-Jan-22 07:33N 40°38' W 074°08'0 0.0
2015-Jan-22 06:33N 40°38' W 074°08'0 0.0
2015-Jan-22 05:32N 40°38' W 074°08'0 0.0
2015-Jan-22 04:33N 40°38' W 074°08'0 0.0
2015-Jan-22 03:30N 40°38' W 074°08'0 0.0
2015-Jan-22 02:33N 40°38' W 074°08'0 0.0
2015-Jan-22 01:33N 40°38' W 074°08'0 0.0
2015-Jan-22 00:34N 40°38' W 074°08'0 0.0
2015-Jan-21 23:33N 40°38' W 074°08'0 0.0
2015-Jan-21 22:50N 40°38' W 074°08'0 0.0
2015-Jan-21 22:43N 40°38' W 074°08'0 0.0
2015-Jan-21 22:33N 40°38' W 074°08'  
Track history (hours):
 
Tides and Currents Weather Stations Pressure Air Temp Water Temp Dewpoint Dewpoint Depression Visibility Wind Speed Wind Dir Waves Ship Positions

James Turecamo

Owner: Moran Towing Corporation, New Canaan, CT. More information available from US FCC via Universal Licensing System and Coast Guard Vessel Documentation Center.

Last reported at 2015-Jan-31 22:33 UTC. Time now 2015-Jan-31 22:39 UTC.
Position N 40°38' W 074°08'.

Length 27 m; draft 4.5 m.

Type: Tug. MMSI: 367073380.

Date/timePositionNaut miles runAvg speedWind from/ knotsBaromVisibWave heightAir tempDewpointWater temp
2015-Jan-31 22:33N 40°38' W 074°08'0 0.0
2015-Jan-31 21:33N 40°38' W 074°08'0 0.0
2015-Jan-31 20:33N 40°38' W 074°08'0 0.0
2015-Jan-31 19:33N 40°38' W 074°08'1 0.9
2015-Jan-31 18:24N 40°39' W 074°07'0 0.0
2015-Jan-31 17:25N 40°39' W 074°07'1 0.9
2015-Jan-31 16:29N 40°39' W 074°06'2 1.2
2015-Jan-31 15:03N 40°38' W 074°08'0 0.0
2015-Jan-31 14:33N 40°38' W 074°08'0 0.0
2015-Jan-31 13:30N 40°38' W 074°08'0 0.0
2015-Jan-31 12:33N 40°38' W 074°08'8 7.5
2015-Jan-31 11:25N 40°32' W 074°15'1 0.6
2015-Jan-31 10:18N 40°31' W 074°15'0 0.0
2015-Jan-31 06:19N 40°31' W 074°15'9 7.5
2015-Jan-31 05:10N 40°39' W 074°09'3 0.9
2015-Jan-31 02:06N 40°39' W 074°06'2 3.1
2015-Jan-31 01:20N 40°39' W 074°03'4 1.9
2015-Jan-30 23:17N 40°38' W 074°08'2 2.2
2015-Jan-30 22:31N 40°40' W 074°08'1 0.9
2015-Jan-30 21:32N 40°39' W 074°09'1 0.5
2015-Jan-30 19:17N 40°38' W 074°08'0 0.0
2015-Jan-30 15:33N 40°38' W 074°08'0 0.0
2015-Jan-30 13:09N 40°38' W 074°08'0 0.0
2015-Jan-30 12:20N 40°38' W 074°08'1 1.8
2015-Jan-30 11:32N 40°39' W 074°06'1 1.3
2015-Jan-30 10:26N 40°38' W 074°08'0 0.0
2015-Jan-30 09:24N 40°38' W 074°08'0 0.0
2015-Jan-30 08:33N 40°38' W 074°08'0 0.0
2015-Jan-30 06:14N 40°38' W 074°08'0 0.0
2015-Jan-30 04:27N 40°38' W 074°08'0 0.0
2015-Jan-30 03:33N 40°38' W 074°08'0 0.0
2015-Jan-30 02:34N 40°38' W 074°08'0 0.0
2015-Jan-30 01:32N 40°38' W 074°08'0 0.0
2015-Jan-30 00:33N 40°38' W 074°08'0 0.0
2015-Jan-29 23:32N 40°38' W 074°08'0 0.0
2015-Jan-29 22:33N 40°38' W 074°08'0 0.0
2015-Jan-29 21:33N 40°38' W 074°08'0 0.0
2015-Jan-29 20:32N 40°38' W 074°08'2 1.9
2015-Jan-29 19:33N 40°39' W 074°06'0 0.1
2015-Jan-29 18:33N 40°39' W 074°05'2 1.8
2015-Jan-29 17:33N 40°38' W 074°08'3 3.3
2015-Jan-29 16:32N 40°42' W 074°07'7 1.7
2015-Jan-29 12:09N 40°48' W 074°03'2 3.2
2015-Jan-29 11:33N 40°47' W 074°05'2 2.1
2015-Jan-29 10:33N 40°45' W 074°05'2 2.1
2015-Jan-29 09:32N 40°43' W 074°06'1 0.2
2015-Jan-29 02:05N 40°44' W 074°07'0 0.0
2015-Jan-29 01:24N 40°44' W 074°07'2 2.4
2015-Jan-29 00:32N 40°42' W 074°07'2 1.8
2015-Jan-28 23:30N 40°40' W 074°08'2 1.9
2015-Jan-28 22:24N 40°38' W 074°08'0 0.0
2015-Jan-28 21:26N 40°38' W 074°08'0 0.0
2015-Jan-28 19:17N 40°38' W 074°08'0 0.0
2015-Jan-28 18:33N 40°38' W 074°08'0 0.0
2015-Jan-28 17:33N 40°38' W 074°08'0 0.0
2015-Jan-28 16:30N 40°38' W 074°08'0 0.0
2015-Jan-28 15:33N 40°38' W 074°08'0 0.0
2015-Jan-28 14:33N 40°38' W 074°08'0 0.0
2015-Jan-28 13:34N 40°38' W 074°08'0 0.0
2015-Jan-28 12:26N 40°38' W 074°08'0 0.0
2015-Jan-28 11:33N 40°38' W 074°08'0 0.0
2015-Jan-28 10:30N 40°38' W 074°08'0 0.0
2015-Jan-28 09:09N 40°38' W 074°08'0 0.0
2015-Jan-28 08:33N 40°38' W 074°08'0 0.0
2015-Jan-28 07:33N 40°38' W 074°08'0 0.0
2015-Jan-28 06:33N 40°38' W 074°08'0 0.0
2015-Jan-28 05:32N 40°38' W 074°08'0 0.0
2015-Jan-28 04:24N 40°38' W 074°08'0 0.0
2015-Jan-28 03:16N 40°38' W 074°08'0 0.0
2015-Jan-28 02:27N 40°38' W 074°08'0 0.0
2015-Jan-28 01:33N 40°38' W 074°08'0 0.0
2015-Jan-28 00:31N 40°38' W 074°08'0 0.0
2015-Jan-27 23:27N 40°38' W 074°08'0 0.0
2015-Jan-27 22:32N 40°38' W 074°08'0 0.0
2015-Jan-27 21:33N 40°38' W 074°08'0 0.0
2015-Jan-27 20:33N 40°38' W 074°08'0 0.0
2015-Jan-27 19:33N 40°38' W 074°08'0 0.0
2015-Jan-27 18:34N 40°38' W 074°08'0 0.0
2015-Jan-27 17:33N 40°38' W 074°08'0 0.0
2015-Jan-27 16:34N 40°38' W 074°08'0 0.0
2015-Jan-27 08:33N 40°38' W 074°08'0 0.0
2015-Jan-27 07:33N 40°38' W 074°08'0 0.0
2015-Jan-27 06:26N 40°38' W 074°08'0 0.0
2015-Jan-26 22:29N 40°38' W 074°08'0 0.0
2015-Jan-26 21:29N 40°38' W 074°08'0 0.0
2015-Jan-26 20:09N 40°38' W 074°08'0 0.0
2015-Jan-26 19:27N 40°38' W 074°08'0 0.0
2015-Jan-26 18:10N 40°38' W 074°08'0 0.0
2015-Jan-26 17:30N 40°38' W 074°08'0 0.0
2015-Jan-26 16:33N 40°38' W 074°08'0 0.0
2015-Jan-26 15:33N 40°38' W 074°08'0 0.0
2015-Jan-26 14:33N 40°38' W 074°08'0 0.0
2015-Jan-26 13:33N 40°38' W 074°08'0 0.0
2015-Jan-26 12:33N 40°38' W 074°08'0 0.0
2015-Jan-26 11:33N 40°38' W 074°08'0 0.0
2015-Jan-26 10:32N 40°38' W 074°08'0 0.0
2015-Jan-26 09:33N 40°38' W 074°08'8 2.8
2015-Jan-26 06:33N 40°32' W 074°15'8 2.6
2015-Jan-26 03:33N 40°39' W 074°10'2 1.8
2015-Jan-26 02:32N 40°38' W 074°08'0 0.0
2015-Jan-26 01:20N 40°38' W 074°08'0 0.0
2015-Jan-26 00:10N 40°38' W 074°08'0 0.0
2015-Jan-25 23:33N 40°38' W 074°08'0 0.0
2015-Jan-25 22:32N 40°38' W 074°08'0 0.0
2015-Jan-25 21:32N 40°38' W 074°08'0 0.0
2015-Jan-25 20:14N 40°38' W 074°08'0 0.0
2015-Jan-25 19:30N 40°38' W 074°08'0 0.0
2015-Jan-25 18:27N 40°38' W 074°08'3 3.1
2015-Jan-25 17:33N 40°39' W 074°04'1 1.1
2015-Jan-25 16:33N 40°39' W 074°03'4 1.3
2015-Jan-25 13:34N 40°38' W 074°08'0 0.0
2015-Jan-25 12:33N 40°38' W 074°08'0 0.0
2015-Jan-25 11:30N 40°38' W 074°08'2 1.7
2015-Jan-25 10:34N 40°39' W 074°06'0 0.0
2015-Jan-25 09:34N 40°39' W 074°06'1 0.6
2015-Jan-25 08:33N 40°39' W 074°05'0 0.2
2015-Jan-25 07:33N 40°39' W 074°05'2 2.1
2015-Jan-25 06:33N 40°38' W 074°03'7 5.4
2015-Jan-25 05:17N 40°38' W 074°12'2 1.8
2015-Jan-25 04:15N 40°36' W 074°12'1 1.5
2015-Jan-25 03:33N 40°35' W 074°13'0 0.2
2015-Jan-25 02:34N 40°35' W 074°13'3 1.3
2015-Jan-25 00:23N 40°38' W 074°12'3 3.8
2015-Jan-24 23:33N 40°38' W 074°08'0 0.0
2015-Jan-24 22:33N 40°38' W 074°08'0 0.0
2015-Jan-24 21:33N 40°38' W 074°08'0 0.0
2015-Jan-24 20:32N 40°38' W 074°08'0 0.0
2015-Jan-24 19:33N 40°38' W 074°08'0 0.0
2015-Jan-24 18:33N 40°38' W 074°08'0 0.0
2015-Jan-24 17:33N 40°38' W 074°08'0 0.0
2015-Jan-24 16:33N 40°38' W 074°08'0 0.0
2015-Jan-24 15:04N 40°38' W 074°08'0 0.1
2015-Jan-24 10:32N 40°39' W 074°08'0 0.3
2015-Jan-24 09:18N 40°38' W 074°08'0 0.0
2015-Jan-24 08:33N 40°38' W 074°08'0 0.0
2015-Jan-24 07:33N 40°38' W 074°08'0 0.0
2015-Jan-24 06:29N 40°38' W 074°08'0 0.0
2015-Jan-24 04:25N 40°38' W 074°08'0 0.0
2015-Jan-24 03:33N 40°38' W 074°08'3 2.6
2015-Jan-24 02:33N 40°41' W 074°09'1 0.6
2015-Jan-24 01:33N 40°40' W 074°08'2 2.0
2015-Jan-24 00:34N 40°38' W 074°08'0 0.0
2015-Jan-23 23:34N 40°38' W 074°08'4 3.8
2015-Jan-23 22:33N 40°39' W 074°03'4 3.8
2015-Jan-23 21:34N 40°43' W 074°01'4 4.3
2015-Jan-23 20:34N 40°47' W 073°60'0 0.0
2015-Jan-23 19:33N 40°47' W 073°60'10 9.5
2015-Jan-23 18:33N 40°39' W 074°06'1 0.3
2015-Jan-23 15:06N 40°38' W 074°08'0 0.0
2015-Jan-23 13:30N 40°38' W 074°08'0 0.0
2015-Jan-23 12:32N 40°38' W 074°08'3 2.9
2015-Jan-23 11:33N 40°41' W 074°09'1 1.2
2015-Jan-23 10:33N 40°40' W 074°08'2 1.6
2015-Jan-23 09:28N 40°38' W 074°08'0 0.0
2015-Jan-23 08:13N 40°38' W 074°08'1 1.0
2015-Jan-23 07:33N 40°38' W 074°09'3 3.2
2015-Jan-23 06:33N 40°42' W 074°09'2 2.2
2015-Jan-23 05:32N 40°40' W 074°09'0 0.3
2015-Jan-23 04:33N 40°40' W 074°09'1 1.4
2015-Jan-23 03:31N 40°38' W 074°08'0 0.0
2015-Jan-23 02:33N 40°38' W 074°08'0 0.0
2015-Jan-23 01:32N 40°38' W 074°08'0 0.0
2015-Jan-23 00:32N 40°38' W 074°08'0 0.0
2015-Jan-22 23:33N 40°38' W 074°08'0 0.0
2015-Jan-22 21:27N 40°38' W 074°08'0 0.0
2015-Jan-22 20:06N 40°38' W 074°08'0 0.0
2015-Jan-22 19:16N 40°38' W 074°08'0 0.0
2015-Jan-22 18:29N 40°38' W 074°08'2 2.6
2015-Jan-22 17:34N 40°39' W 074°05'2 1.8
2015-Jan-22 16:32N 40°39' W 074°07'1 0.6
2015-Jan-22 15:33N 40°38' W 074°08'3 2.6
2015-Jan-22 14:33N 40°41' W 074°08'1 1.2
2015-Jan-22 13:32N 40°40' W 074°08'3 3.2
2015-Jan-22 12:33N 40°39' W 074°04'4 4.0
2015-Jan-22 11:31N 40°41' W 074°09'2 1.8
2015-Jan-22 10:29N 40°39' W 074°09'1 1.3
2015-Jan-22 09:33N 40°38' W 074°08'0 0.0
2015-Jan-22 08:33N 40°38' W 074°08'0 0.0
2015-Jan-22 07:33N 40°38' W 074°08'0 0.0
2015-Jan-22 06:33N 40°38' W 074°08'0 0.0
2015-Jan-22 05:32N 40°38' W 074°08'0 0.0
2015-Jan-22 04:33N 40°38' W 074°08'0 0.0
2015-Jan-22 03:30N 40°38' W 074°08'0 0.0
2015-Jan-22 02:33N 40°38' W 074°08'0 0.0
2015-Jan-22 01:33N 40°38' W 074°08'0 0.0
2015-Jan-22 00:34N 40°38' W 074°08'0 0.0
2015-Jan-21 23:33N 40°38' W 074°08'0 0.0
2015-Jan-21 22:50N 40°38' W 074°08'0 0.0
2015-Jan-21 22:43N 40°38' W 074°08'0 0.0
2015-Jan-21 22:33N 40°38' W 074°08'  

Dump ship's entire track history